Time;durP1;ratioP1;P1;durP2;ratioP2;P2;SDS_P1;SDS_P2;PMS_P1;PMS_P2;Temp;Humidity;BMP_temperature;BMP_pressure;BME280_temperature;BME280_humidity;BME280_pressure;Samples;Min_cycle;Max_cycle;Signal;HPM_P1;HPM_P2
2022/07/17 00:01:30;;;;;;;;;4.00;4.00;;;;;20.39;43.65;100149.91;6290677;20;2743011;-54
2022/07/17 00:03:58;;;;;;;;;2.00;2.00;;;;;20.38;43.58;100152.81;6292299;20;2729422;-50
2022/07/17 00:06:26;;;;;;;;;3.00;3.00;;;;;20.31;43.96;100152.50;6293043;20;2741459;-54
2022/07/17 00:08:54;;;;;;;;;4.00;3.00;;;;;20.35;43.77;100159.41;6291770;20;2734771;-52
2022/07/17 00:11:21;;;;;;;;;3.00;3.00;;;;;20.24;44.13;100159.53;6292133;20;2729459;-54
2022/07/17 00:13:50;;;;;;;;;4.33;3.67;;;;;20.17;43.99;100158.41;6290261;20;2744176;-53
2022/07/17 00:16:18;;;;;;;;;2.50;2.00;;;;;20.21;44.30;100165.28;6318663;20;2744065;-53
2022/07/17 00:18:45;;;;;;;;;4.00;3.50;;;;;20.11;44.64;100168.00;6288970;20;2756569;-54
2022/07/17 00:21:13;;;;;;;;;3.00;3.00;;;;;20.05;44.72;100160.41;6289364;20;2732631;-56
2022/07/17 00:23:41;;;;;;;;;2.00;2.00;;;;;20.00;44.68;100159.13;6290661;20;2733645;-52
2022/07/17 00:26:09;;;;;;;;;3.00;3.00;;;;;19.91;45.35;100166.31;6290205;20;2737757;-50
2022/07/17 00:28:37;;;;;;;;;3.00;3.00;;;;;19.89;45.29;100162.88;6285875;20;2741982;-53
2022/07/17 00:31:05;;;;;;;;;3.00;3.00;;;;;19.81;44.93;100168.16;6287156;20;2732575;-53
2022/07/17 00:33:33;;;;;;;;;4.00;4.00;;;;;19.75;45.22;100164.16;6287487;20;2748329;-52
2022/07/17 00:36:01;;;;;;;;;2.50;2.50;;;;;19.67;45.24;100164.00;6287677;20;2748267;-50
2022/07/17 00:38:29;;;;;;;;;4.00;4.00;;;;;19.50;45.87;100160.91;6290690;20;2747130;-53
2022/07/17 00:40:58;;;;;;;;;3.00;3.00;;;;;19.45;46.17;100171.34;6290164;20;2741917;-53
2022/07/17 00:43:26;;;;;;;;;3.00;3.00;;;;;19.54;45.61;100175.13;6287865;20;2741940;-53
2022/07/17 00:46:05;;;;;;;;;3.50;2.50;;;;;19.54;45.82;100172.41;6288885;20;2734630;-54
2022/07/17 00:48:33;;;;;;;;;5.00;3.00;;;;;19.45;46.00;100175.94;6286088;20;2743044;-55
2022/07/17 00:51:00;;;;;;;;;3.00;3.00;;;;;19.27;46.42;100176.63;6285155;20;2738867;-56
2022/07/17 00:53:35;;;;;;;;;4.00;4.00;;;;;19.17;46.99;100169.41;6285500;20;2756587;-55
2022/07/17 00:56:06;;;;;;;;;3.00;3.00;;;;;18.98;47.62;100181.94;6285999;20;2741947;-55
2022/07/17 00:58:37;;;;;;;;;4.00;4.00;;;;;19.05;46.89;100185.00;6285677;20;2756508;-54
2022/07/17 01:01:06;;;;;;;;;4.00;2.50;;;;;19.27;46.71;100175.75;6287539;20;2756499;-56
2022/07/17 01:03:34;;;;;;;;;3.00;3.00;;;;;19.27;46.38;100179.34;6289011;20;2738788;-55
2022/07/17 01:06:04;;;;;;;;;3.00;2.00;;;;;19.24;46.16;100181.47;6301907;20;1791343;-58
2022/07/17 01:08:33;;;;;;;;;3.00;3.00;;;;;19.36;45.85;100177.66;6318252;20;2729531;-58
2022/07/17 01:11:01;;;;;;;;;3.00;3.00;;;;;19.33;46.32;100177.09;6285855;20;2739875;-61
2022/07/17 01:13:31;;;;;;;;;2.00;2.00;;;;;19.02;47.17;100171.66;6287696;20;2738897;-62
2022/07/17 01:15:59;;;;;;;;;4.00;3.00;;;;;18.72;47.75;100172.47;6286147;20;2752347;-62
2022/07/17 01:18:27;;;;;;;;;0.00;0.00;;;;;18.82;46.90;100181.56;6290970;20;2728362;-61
2022/07/17 01:20:55;;;;;;;;;4.00;2.00;;;;;18.72;47.48;100177.91;6290186;20;2727337;-60
2022/07/17 01:23:22;;;;;;;;;2.00;2.00;;;;;18.82;47.38;100178.84;6289519;20;2729464;-59
2022/07/17 01:25:50;;;;;;;;;3.00;3.00;;;;;18.52;47.78;100176.94;6288000;20;2735812;-61
2022/07/17 01:28:18;;;;;;;;;2.50;2.50;;;;;18.92;46.42;100192.53;6286195;20;2730478;-61
2022/07/17 01:30:51;;;;;;;;;3.00;3.00;;;;;18.97;46.36;100188.38;6287672;20;2746085;-62
2022/07/17 01:33:21;;;;;;;;;5.00;4.00;;;;;19.07;45.60;100189.28;6285728;20;2754464;-62
2022/07/17 01:35:51;;;;;;;;;3.00;2.00;;;;;18.90;46.16;100187.19;6287378;20;2741958;-61
2022/07/17 01:38:19;;;;;;;;;2.00;2.00;;;;;18.76;46.17;100190.28;6288307;20;2726317;-61
2022/07/17 01:40:47;;;;;;;;;4.00;4.00;;;;;18.73;46.18;100185.94;6286620;20;2746094;-61
2022/07/17 01:43:15;;;;;;;;;4.00;4.00;;;;;18.72;46.44;100177.91;6286329;20;2753479;-61
2022/07/17 01:45:43;;;;;;;;;2.00;2.00;;;;;18.74;45.88;100192.25;6285454;20;2744068;-61
2022/07/17 01:48:11;;;;;;;;;2.00;2.00;;;;;18.74;46.28;100192.25;6287155;20;2742947;-62
2022/07/17 01:50:38;;;;;;;;;1.00;1.00;;;;;18.75;46.10;100188.56;6286513;20;2746133;-61
2022/07/17 01:53:06;;;;;;;;;2.00;2.00;;;;;18.72;46.13;100197.84;6286454;20;2732647;-61
2022/07/17 01:55:34;;;;;;;;;4.00;3.00;;;;;18.49;46.46;100188.94;6287533;20;2737757;-61
2022/07/17 01:58:02;;;;;;;;;4.00;2.00;;;;;18.51;46.92;100200.56;6294992;20;2750278;-61
2022/07/17 02:00:29;;;;;;;;;2.50;2.50;;;;;18.55;46.21;100198.44;6287016;20;2734628;-61
2022/07/17 02:02:57;;;;;;;;;3.00;3.00;;;;;18.47;46.59;100200.94;6286601;20;2741941;-62
2022/07/17 02:05:25;;;;;;;;;2.00;2.00;;;;;18.31;46.78;100209.56;6288092;20;2746109;-61
2022/07/17 02:07:52;;;;;;;;;2.00;2.00;;;;;18.42;46.51;100206.78;6284882;20;2744029;-61
2022/07/17 02:10:20;;;;;;;;;2.00;2.00;;;;;18.23;46.85;100214.81;6288207;20;2744123;-62
2022/07/17 02:12:48;;;;;;;;;2.50;2.00;;;;;18.37;46.68;100200.88;6286230;20;2744094;-61
2022/07/17 02:15:16;;;;;;;;;2.00;2.00;;;;;18.25;46.56;100208.25;6289417;20;2729615;-62
2022/07/17 02:17:44;;;;;;;;;2.00;2.00;;;;;18.44;45.89;100212.97;6287720;20;2741922;-61
2022/07/17 02:20:13;;;;;;;;;2.00;2.00;;;;;18.21;46.48;100209.47;6287434;20;2735779;-61
2022/07/17 02:22:41;;;;;;;;;2.00;2.00;;;;;18.15;47.37;100210.00;6285619;20;2752337;-61
2022/07/17 02:25:10;;;;;;;;;2.00;2.00;;;;;18.08;46.79;100215.09;6287687;20;2752327;-60
2022/07/17 02:27:40;;;;;;;;;2.00;2.00;;;;;18.13;46.71;100218.28;6284362;20;2744302;-61
2022/07/17 02:30:14;;;;;;;;;2.00;2.00;;;;;17.59;48.64;100227.31;6279861;20;2746145;-56
2022/07/17 02:32:43;;;;;;;;;3.00;3.00;;;;;17.66;48.94;100214.94;6284312;20;2744066;-58
2022/07/17 02:35:12;;;;;;;;;2.00;2.00;;;;;17.88;47.97;100215.94;6287367;20;2739847;-56
2022/07/17 02:37:42;;;;;;;;;3.00;3.00;;;;;17.75;48.06;100216.91;6286267;20;2726822;-59
2022/07/17 02:40:11;;;;;;;;;2.00;2.00;;;;;17.85;47.73;100208.00;6286589;20;2731502;-58
2022/07/17 02:42:39;;;;;;;;;2.00;2.00;;;;;17.83;47.70;100219.03;6283890;20;2730469;-57
2022/07/17 02:45:08;;;;;;;;;3.00;3.00;;;;;17.87;47.64;100219.63;6283121;20;2748616;-56
2022/07/17 02:47:37;;;;;;;;;1.50;1.50;;;;;17.80;47.76;100227.44;6284652;20;2735739;-58
2022/07/17 02:50:08;;;;;;;;;2.50;2.50;;;;;17.65;48.24;100224.09;6286452;20;2735678;-59
2022/07/17 02:52:37;;;;;;;;;4.00;3.00;;;;;17.14;50.35;100231.91;6279117;20;2729468;-59
2022/07/17 02:55:07;;;;;;;;;2.00;2.00;;;;;16.29;53.66;100226.78;6284582;20;2739850;-59
2022/07/17 02:57:35;;;;;;;;;3.00;3.00;;;;;16.05;54.51;100218.69;6283560;20;2750308;-58
2022/07/17 03:00:11;;;;;;;;;4.25;2.50;;;;;16.24;53.86;100219.88;6305211;20;1803516;-58
2022/07/17 03:02:39;;;;;;;;;3.00;3.00;;;;;16.59;52.49;100224.41;6320573;20;2736726;-58
2022/07/17 03:05:07;;;;;;;;;2.00;2.00;;;;;16.76;51.75;100220.38;6289174;20;2737745;-56
2022/07/17 03:07:36;;;;;;;;;2.00;2.00;;;;;17.06;50.98;100225.25;6288732;20;2746223;-58
2022/07/17 03:10:06;;;;;;;;;2.50;2.50;;;;;16.75;52.18;100215.94;6289563;20;2732637;-58
2022/07/17 03:12:34;;;;;;;;;3.00;3.00;;;;;17.23;50.78;100225.75;6287429;20;2735699;-55
2022/07/17 03:15:03;;;;;;;;;3.50;2.00;;;;;17.31;50.15;100235.00;6289416;20;2729449;-58
2022/07/17 03:17:31;;;;;;;;;2.00;2.00;;;;;17.34;50.36;100226.59;6285002;20;2755446;-58
2022/07/17 03:19:59;;;;;;;;;2.50;2.50;;;;;17.41;50.31;100234.25;6292641;20;2731511;-57
2022/07/17 03:22:27;;;;;;;;;4.00;3.00;;;;;17.28;50.87;100245.25;6287025;20;2755459;-58
2022/07/17 03:24:55;;;;;;;;;4.00;2.50;;;;;17.45;50.08;100246.56;6288543;20;2756560;-58
2022/07/17 03:27:23;;;;;;;;;3.00;3.00;;;;;17.37;49.90;100255.34;6286824;20;2733633;-57
2022/07/17 03:29:52;;;;;;;;;3.00;3.00;;;;;17.43;50.33;100259.41;6287992;20;2756501;-58
2022/07/17 03:32:20;;;;;;;;;3.00;3.00;;;;;17.01;51.37;100257.31;6290798;20;2731489;-58
2022/07/17 03:34:49;;;;;;;;;2.00;2.00;;;;;16.99;51.60;100255.72;6285528;20;2744010;-56
2022/07/17 03:37:17;;;;;;;;;2.00;2.00;;;;;16.74;52.45;100262.16;6285085;20;2752338;-58
2022/07/17 03:39:45;;;;;;;;;2.00;2.00;;;;;16.72;52.58;100267.72;6288410;20;2741027;-58
2022/07/17 03:42:12;;;;;;;;;1.00;1.00;;;;;16.54;53.29;100272.72;6289446;20;2744070;-57
2022/07/17 03:44:40;;;;;;;;;2.00;2.00;;;;;16.51;53.38;100269.34;6287945;20;2730554;-56
2022/07/17 03:47:08;;;;;;;;;2.00;2.00;;;;;16.66;53.60;100277.16;6287575;20;2734654;-57
2022/07/17 03:49:36;;;;;;;;;2.00;1.00;;;;;16.82;52.61;100278.72;6286670;20;2737776;-58
2022/07/17 03:52:04;;;;;;;;;2.00;2.00;;;;;16.81;52.98;100280.56;6286546;20;2738915;-58
2022/07/17 03:54:32;;;;;;;;;2.00;2.00;;;;;16.89;52.54;100280.84;6287001;20;2753368;-57
2022/07/17 03:57:00;;;;;;;;;3.00;1.00;;;;;16.95;52.39;100274.06;6289122;20;2738780;-55
2022/07/17 03:59:28;;;;;;;;;2.00;2.00;;;;;16.88;53.04;100279.13;6286397;20;2729786;-58
2022/07/17 04:01:56;;;;;;;;;2.50;2.50;;;;;16.77;54.02;100279.09;6287382;20;2735706;-58
2022/07/17 04:04:24;;;;;;;;;1.00;1.00;;;;;16.94;53.69;100285.03;6285763;20;2752366;-57
2022/07/17 04:06:51;;;;;;;;;3.00;3.00;;;;;16.90;53.69;100278.97;6287944;20;2728526;-58
2022/07/17 04:09:19;;;;;;;;;2.00;2.00;;;;;16.96;53.33;100283.94;6287067;20;2744090;-58
2022/07/17 04:11:47;;;;;;;;;3.00;3.00;;;;;17.11;53.15;100287.28;6286709;20;2737747;-58
2022/07/17 04:14:15;;;;;;;;;3.00;3.00;;;;;17.27;52.94;100287.81;6287634;20;2738828;-58
2022/07/17 04:16:42;;;;;;;;;3.00;3.00;;;;;17.36;52.69;100298.91;6287547;20;2710726;-57
2022/07/17 04:19:10;;;;;;;;;4.00;2.50;;;;;17.48;52.13;100306.03;6287158;20;2730482;-58
2022/07/17 04:21:38;;;;;;;;;2.00;2.00;;;;;17.23;52.88;100313.44;6288776;20;2726308;-55
2022/07/17 04:24:05;;;;;;;;;2.00;2.00;;;;;17.47;52.22;100309.75;6287186;20;2752416;-58
2022/07/17 04:26:33;;;;;;;;;3.00;3.00;;;;;17.49;52.66;100310.50;6288433;20;2742041;-58
2022/07/17 04:29:02;;;;;;;;;4.00;2.50;;;;;17.59;52.65;100313.31;6285353;20;2750276;-57
2022/07/17 04:31:31;;;;;;;;;2.00;2.00;;;;;17.65;52.59;100310.13;6287454;20;2737749;-58
2022/07/17 04:33:59;;;;;;;;;2.00;2.00;;;;;17.78;52.43;100311.72;6288318;20;2727335;-58
2022/07/17 04:36:26;;;;;;;;;2.00;2.00;;;;;17.94;52.41;100318.66;6288515;20;2741982;-58
2022/07/17 04:38:54;;;;;;;;;3.00;3.00;;;;;17.99;52.12;100316.41;6290132;20;2752478;-58
2022/07/17 04:41:22;;;;;;;;;2.00;2.00;;;;;17.97;51.86;100321.09;6289001;20;2746085;-58
2022/07/17 04:43:49;;;;;;;;;3.00;3.00;;;;;18.09;51.73;100328.25;6295046;20;2625367;-58
2022/07/17 04:46:17;;;;;;;;;5.00;3.00;;;;;18.05;52.20;100326.78;6285053;20;2752453;-57
2022/07/17 04:48:45;;;;;;;;;2.00;2.00;;;;;18.32;50.96;100331.75;6285987;20;2742043;-56
2022/07/17 04:51:13;;;;;;;;;4.00;2.00;;;;;18.31;51.29;100340.06;6288772;20;2772184;-57
2022/07/17 04:53:41;;;;;;;;;1.00;1.00;;;;;18.29;51.31;100331.16;6286621;20;2742967;-58
2022/07/17 04:56:09;;;;;;;;;2.00;2.00;;;;;18.48;51.37;100334.06;6288460;20;2764836;-58
2022/07/17 04:58:37;;;;;;;;;2.00;2.00;;;;;18.53;50.87;100329.09;6286478;20;2744030;-59
2022/07/17 05:01:04;;;;;;;;;3.00;3.00;;;;;18.55;50.69;100329.81;6287640;20;2743015;-58
2022/07/17 05:03:32;;;;;;;;;2.00;2.00;;;;;18.45;50.58;100337.03;6287626;20;2744018;-57
2022/07/17 05:06:00;;;;;;;;;2.00;2.00;;;;;18.78;49.59;100335.22;6285938;20;2733608;-58
2022/07/17 05:08:28;;;;;;;;;2.00;2.00;;;;;18.96;49.63;100349.97;6289318;20;2741922;-56
2022/07/17 05:10:55;;;;;;;;;3.00;3.00;;;;;18.93;49.39;100350.22;6288271;20;2731602;-56
2022/07/17 05:13:23;;;;;;;;;1.00;1.00;;;;;18.95;49.34;100359.09;6288572;20;2729519;-57
2022/07/17 05:15:51;;;;;;;;;1.00;1.00;;;;;19.39;48.72;100362.56;6287820;20;2735699;-54
2022/07/17 05:18:19;;;;;;;;;1.50;1.50;;;;;19.58;48.33;100360.94;6289319;20;2731498;-55
2022/07/17 05:20:46;;;;;;;;;3.00;2.00;;;;;19.61;48.16;100361.50;6286746;20;2746090;-55
2022/07/17 05:23:14;;;;;;;;;2.50;2.50;;;;;19.82;47.44;100358.75;6291383;20;2732648;-56
2022/07/17 05:25:43;;;;;;;;;1.00;1.00;;;;;19.85;46.74;100361.25;6287116;20;2735690;-55
2022/07/17 05:28:12;;;;;;;;;1.00;1.00;;;;;20.28;45.66;100364.66;6318681;20;2727467;-57
2022/07/17 05:30:40;;;;;;;;;1.00;1.00;;;;;20.35;45.02;100372.16;6318923;20;2750246;-54
2022/07/17 05:33:07;;;;;;;;;1.00;1.00;;;;;20.62;44.07;100373.38;6292566;20;2419208;-55
2022/07/17 05:35:36;;;;;;;;;2.00;2.00;;;;;20.68;43.25;100371.94;6291715;20;2750369;-55
2022/07/17 05:38:05;;;;;;;;;2.00;1.00;;;;;20.42;42.55;100377.03;6319486;20;2725331;-52
2022/07/17 05:40:33;;;;;;;;;0.33;0.33;;;;;20.16;42.29;100385.72;6318626;20;2728374;-55
2022/07/17 05:43:02;;;;;;;;;2.00;0.00;;;;;20.53;42.11;100382.34;6317945;20;2735749;-57
2022/07/17 05:45:30;;;;;;;;;2.00;1.00;;;;;20.59;42.70;100390.88;6319286;20;2727334;-57
2022/07/17 05:47:59;;;;;;;;;1.00;1.00;;;;;21.09;41.67;100392.63;6317210;20;2730514;-57
2022/07/17 05:50:27;;;;;;;;;1.00;1.00;;;;;21.11;41.46;100389.72;6319129;20;2737787;-57
2022/07/17 05:52:56;;;;;;;;;1.00;1.00;;;;;20.88;41.27;100394.59;6316757;20;2725400;-57
2022/07/17 05:55:24;;;;;;;;;1.00;1.00;;;;;20.74;41.40;100396.75;6317953;20;2721227;-54
2022/07/17 05:57:53;;;;;;;;;1.33;1.33;;;;;20.73;41.65;100396.94;6319574;20;2726391;-57
2022/07/17 06:00:22;;;;;;;;;1.00;1.00;;;;;20.73;41.40;100397.78;6315446;20;2727436;-55
2022/07/17 06:02:51;;;;;;;;;1.00;1.00;;;;;20.50;41.55;100396.28;6316974;20;2724311;-57
2022/07/17 06:05:19;;;;;;;;;1.00;1.00;;;;;20.98;41.39;100398.22;6317623;20;2723181;-58
2022/07/17 06:07:48;;;;;;;;;1.00;1.00;;;;;21.35;40.97;100403.78;6316002;20;2727332;-57
2022/07/17 06:10:16;;;;;;;;;1.00;1.00;;;;;21.60;40.12;100412.41;6317615;20;2725412;-56
2022/07/17 06:12:45;;;;;;;;;1.00;1.00;;;;;21.49;39.93;100405.25;6316860;20;2726411;-58
2022/07/17 06:15:14;;;;;;;;;2.00;0.00;;;;;21.40;40.31;100414.31;6315109;20;2724201;-57
2022/07/17 06:17:42;;;;;;;;;0.67;0.67;;;;;21.31;40.36;100406.97;6314629;20;2726323;-57
2022/07/17 06:20:13;;;;;;;;;1.00;1.00;;;;;21.57;40.73;100413.56;6317821;20;2727360;-57
2022/07/17 06:22:43;;;;;;;;;1.00;1.00;;;;;21.82;38.57;100422.09;6317590;20;2725267;-58
2022/07/17 06:25:13;;;;;;;;;0.00;0.00;;;;;21.74;38.91;100416.53;6318504;20;2727365;-58
2022/07/17 06:27:42;;;;;;;;;1.33;0.00;;;;;22.21;38.94;100427.47;6315804;20;2729583;-58
2022/07/17 06:30:14;;;;;;;;;0.00;0.00;;;;;22.26;38.08;100420.50;6312141;20;2727457;-60
2022/07/17 06:32:43;;;;;;;;;1.33;0.67;;;;;22.74;35.69;100419.34;6320591;20;2722224;-60
2022/07/17 06:35:12;;;;;;;;;0.00;0.00;;;;;22.96;34.83;100422.63;6322061;20;2727363;-60
2022/07/17 06:37:41;;;;;;;;;0.33;0.33;;;;;22.95;34.99;100427.25;6318861;20;2726398;-60
2022/07/17 06:40:10;;;;;;;;;0.00;0.00;;;;;23.26;33.90;100424.16;6320486;20;2735712;-60
2022/07/17 06:42:38;;;;;;;;;0.67;0.33;;;;;23.58;33.63;100428.16;6323501;20;2726321;-60
2022/07/17 06:45:08;;;;;;;;;2.00;0.33;;;;;23.16;33.60;100428.84;6322004;20;2723288;-62
2022/07/17 06:47:39;;;;;;;;;1.00;1.00;;;;;23.54;32.92;100427.63;6360605;20;3435665;-61
2022/07/17 06:50:10;;;;;;;;;0.60;0.60;;;;;23.65;32.18;100423.75;6342721;20;2735665;-59
2022/07/17 06:52:38;;;;;;;;;0.67;0.67;;;;;23.53;32.37;100428.63;6322245;20;2730504;-61
2022/07/17 06:55:14;;;;;;;;;0.00;0.00;;;;;23.50;33.26;100431.69;6346319;20;2729572;-61
2022/07/17 06:57:43;;;;;;;;;0.00;0.00;;;;;24.00;31.52;100432.91;6323601;20;2700255;-60
2022/07/17 07:00:12;;;;;;;;;0.00;0.00;;;;;24.53;31.28;100440.03;6319633;20;2727341;-61
2022/07/17 07:02:42;;;;;;;;;0.00;0.00;;;;;24.51;31.54;100434.72;6343557;20;2727352;-61
2022/07/17 07:05:11;;;;;;;;;0.00;0.00;;;;;25.01;30.51;100437.56;6341787;20;2732634;-61
2022/07/17 07:07:41;;;;;;;;;0.00;0.00;;;;;24.82;30.69;100438.75;6343527;20;2716994;-60
2022/07/17 07:10:09;;;;;;;;;0.00;0.00;;;;;24.86;30.78;100429.16;6318371;20;2727373;-61
2022/07/17 07:12:38;;;;;;;;;0.00;0.00;;;;;24.93;30.58;100435.66;6321239;20;2726317;-61
2022/07/17 07:15:09;;;;;;;;;0.60;0.60;;;;;25.22;29.94;100437.09;6341548;20;2726317;-62
2022/07/17 07:17:42;;;;;;;;;0.00;0.00;;;;;25.24;29.97;100448.78;6340921;20;2733577;-61
2022/07/17 07:20:12;;;;;;;;;0.00;0.00;;;;;25.04;30.76;100438.13;6343260;20;2730480;-61
2022/07/17 07:22:41;;;;;;;;;1.00;1.00;;;;;25.43;29.81;100442.94;6343516;20;2730477;-61
2022/07/17 07:25:11;;;;;;;;;0.00;0.00;;;;;25.23;29.85;100444.34;6342741;20;2729505;-61
2022/07/17 07:27:40;;;;;;;;;0.80;0.60;;;;;24.63;30.53;100440.75;6340597;20;2729455;-60
2022/07/17 07:30:11;;;;;;;;;1.60;0.00;;;;;25.42;29.06;100446.75;6339696;20;2727372;-62
2022/07/17 07:32:41;;;;;;;;;1.00;0.00;;;;;25.01;30.35;100449.41;6340954;20;2733587;-61
2022/07/17 07:35:11;;;;;;;;;0.00;0.00;;;;;25.13;29.12;100448.06;6341148;20;2731624;-62
2022/07/17 07:37:40;;;;;;;;;0.00;0.00;;;;;25.59;28.71;100445.72;6339233;20;2735688;-61
2022/07/17 07:40:11;;;;;;;;;0.00;0.00;;;;;25.55;28.17;100441.56;6343155;20;2726445;-59
2022/07/17 07:42:41;;;;;;;;;1.20;0.00;;;;;26.04;28.90;100448.91;6340390;20;2731569;-59
2022/07/17 07:45:10;;;;;;;;;0.00;0.00;;;;;25.97;28.59;100451.50;6346116;20;2723279;-59
2022/07/17 07:47:50;;;;;;;;;0.00;0.00;;;;;26.63;27.87;100454.03;6343571;20;2731570;-59
2022/07/17 07:50:24;;;;;;;;;1.00;1.00;;;;;26.08;28.71;100449.41;6346420;20;2742948;-54
2022/07/17 07:52:54;;;;;;;;;0.00;0.00;;;;;25.96;27.62;100451.66;6344456;20;2727332;-59
2022/07/17 07:55:25;;;;;;;;;0.00;0.00;;;;;25.97;28.11;100451.50;6342564;20;2732563;-59
2022/07/17 07:58:08;;;;;;;;;0.00;0.00;;;;;26.36;28.00;100450.69;6345307;20;2731550;-59
2022/07/17 08:00:40;;;;;;;;;2.00;1.00;;;;;25.86;27.54;100448.25;6344841;20;2733605;-59
2022/07/17 08:03:09;;;;;;;;;0.60;0.60;;;;;26.04;27.33;100451.66;6345989;20;2727441;-60
2022/07/17 08:05:39;;;;;;;;;0.60;0.60;;;;;26.63;26.75;100454.91;6339617;20;2731592;-60
2022/07/17 08:08:09;;;;;;;;;0.40;0.40;;;;;26.15;26.06;100456.78;6345506;20;2731551;-63
2022/07/17 08:10:39;;;;;;;;;0.00;0.00;;;;;26.58;26.78;100460.09;6345757;20;2733577;-63
2022/07/17 08:13:09;;;;;;;;;0.00;0.00;;;;;26.39;25.96;100460.50;6344321;20;2728396;-62
2022/07/17 08:15:39;;;;;;;;;2.00;1.00;;;;;25.82;26.61;100453.22;6343281;20;2729425;-62
2022/07/17 08:18:08;;;;;;;;;0.00;0.00;;;;;26.08;26.47;100453.03;6345308;20;2725264;-62
2022/07/17 08:20:38;;;;;;;;;0.00;0.00;;;;;26.60;24.65;100449.75;6344783;20;2724579;-62
2022/07/17 08:23:08;;;;;;;;;0.40;0.40;;;;;26.31;25.62;100452.28;6343633;20;2728439;-62
2022/07/17 08:25:37;;;;;;;;;0.00;0.00;;;;;26.35;25.89;100459.13;6345000;20;2731582;-64
2022/07/17 08:28:07;;;;;;;;;0.00;0.00;;;;;25.55;25.91;100449.81;6342900;20;2729497;-63
2022/07/17 08:30:36;;;;;;;;;0.40;0.00;;;;;26.43;25.41;100451.69;6344000;20;2733605;-62
2022/07/17 08:33:09;;;;;;;;;1.00;1.00;;;;;26.18;25.88;100458.34;6346260;20;2727373;-63
2022/07/17 08:35:38;;;;;;;;;0.00;0.00;;;;;25.86;26.07;100468.41;6341210;20;2727400;-62
2022/07/17 08:38:08;;;;;;;;;0.00;0.00;;;;;26.64;24.51;100461.25;6345793;20;2735836;-62
2022/07/17 08:40:40;;;;;;;;;2.00;1.00;;;;;26.94;24.85;100462.31;6343510;20;2733722;-63
2022/07/17 08:43:09;;;;;;;;;1.00;1.00;;;;;26.86;24.28;100460.47;6343617;20;2727418;-61
2022/07/17 08:45:40;;;;;;;;;0.00;0.00;;;;;27.04;24.01;100456.53;6344629;20;2727322;-62
2022/07/17 08:48:18;;;;;;;;;0.00;0.00;;;;;26.65;23.49;100465.75;6340908;20;2729480;-62
2022/07/17 08:50:48;;;;;;;;;1.00;0.00;;;;;26.92;23.34;100465.22;6341485;20;2733598;-61
2022/07/17 08:53:18;;;;;;;;;1.40;0.00;;;;;27.11;24.46;100452.88;6344714;20;2714849;-60
2022/07/17 08:55:47;;;;;;;;;0.00;0.00;;;;;26.75;24.43;100449.81;6340269;20;2728521;-62
2022/07/17 08:58:18;;;;;;;;;0.00;0.00;;;;;26.99;23.75;100461.75;6342509;20;2726503;-62
2022/07/17 09:00:49;;;;;;;;;0.00;0.00;;;;;25.71;25.32;100453.59;6338742;20;2726310;-61
2022/07/17 09:03:19;;;;;;;;;0.00;0.00;;;;;26.49;25.00;100455.63;6341891;20;2730050;-62
2022/07/17 09:05:49;;;;;;;;;0.00;0.00;;;;;27.18;25.14;100455.81;6345062;20;2731486;-62
2022/07/17 09:08:24;;;;;;;;;0.00;0.00;;;;;26.53;24.78;100454.25;6345296;20;2726316;-61
2022/07/17 09:10:54;;;;;;;;;0.00;0.00;;;;;26.43;26.00;100454.44;6343972;20;2726304;-62
2022/07/17 09:13:29;;;;;;;;;2.00;0.00;;;;;27.13;24.32;100455.47;6341737;20;2720039;-62
2022/07/17 09:16:12;;;;;;;;;0.60;0.60;;;;;27.06;24.60;100462.72;6342738;20;2731593;-62
2022/07/17 09:18:55;;;;;;;;;0.00;0.00;;;;;27.09;25.14;100452.22;6344928;20;2727470;-61
2022/07/17 09:21:29;;;;;;;;;0.40;0.40;;;;;27.55;24.60;100456.88;6341644;20;2733667;-61
2022/07/17 09:24:07;;;;;;;;;0.20;0.20;;;;;26.77;24.58;100455.16;6343436;20;2727350;-61
2022/07/17 09:26:45;;;;;;;;;0.20;0.20;;;;;26.26;25.95;100466.56;6342468;20;2731574;-60
2022/07/17 09:29:14;;;;;;;;;0.00;0.00;;;;;26.63;25.43;100451.28;6340181;20;2730528;-62
2022/07/17 09:31:44;;;;;;;;;0.40;0.40;;;;;27.89;24.97;100442.59;6342132;20;2727337;-61
2022/07/17 09:34:19;;;;;;;;;0.00;0.00;;;;;27.48;25.17;100455.91;6339065;20;2730472;-54
2022/07/17 09:37:00;;;;;;;;;0.80;0.80;;;;;27.42;24.97;100449.22;6343055;20;2726387;-58
2022/07/17 09:39:38;;;;;;;;;0.40;0.20;;;;;27.77;25.75;100446.81;6342099;20;2727713;-58
2022/07/17 09:42:12;;;;;;;;;0.00;0.00;;;;;27.40;25.35;100447.69;6344674;20;2727364;-58
2022/07/17 09:44:41;;;;;;;;;0.00;0.00;;;;;27.14;24.69;100448.88;6341209;20;2727412;-57
2022/07/17 09:47:11;;;;;;;;;0.00;0.00;;;;;27.64;23.98;100452.97;6341448;20;2727354;-54
2022/07/17 09:49:41;;;;;;;;;0.60;0.60;;;;;27.20;24.59;100439.94;6340738;20;2729458;-55
2022/07/17 09:52:16;;;;;;;;;0.40;0.40;;;;;28.11;24.67;100440.78;6339283;20;2729590;-58
2022/07/17 09:54:48;;;;;;;;;2.00;0.00;;;;;28.23;24.11;100444.81;6340413;20;2728410;-61
2022/07/17 09:57:34;;;;;;;;;0.00;0.00;;;;;27.33;25.96;100442.94;6338309;20;2726304;-58
2022/07/17 10:00:13;;;;;;;;;1.20;1.20;;;;;27.19;25.71;100431.84;6341806;20;2733613;-56
2022/07/17 10:02:46;;;;;;;;;2.00;0.80;;;;;28.39;23.67;100442.88;6338639;20;2735726;-58
2022/07/17 10:05:16;;;;;;;;;2.20;1.40;;;;;28.41;23.49;100429.72;6341693;20;2748395;-59
2022/07/17 10:07:48;;;;;;;;;0.40;0.00;;;;;28.14;24.60;100440.41;6309403;20;2720064;-53
2022/07/17 10:10:19;;;;;;;;;0.40;0.00;;;;;27.99;23.81;100429.38;6341495;20;2727363;-58
2022/07/17 10:12:50;;;;;;;;;1.00;1.00;;;;;27.98;24.00;100435.94;6343807;20;2731556;-52
2022/07/17 10:15:26;;;;;;;;;1.00;0.00;;;;;27.48;24.11;100423.66;6340190;20;2727338;-54
2022/07/17 10:18:08;;;;;;;;;0.00;0.00;;;;;28.27;24.00;100427.84;6342350;20;2729471;-54
2022/07/17 10:20:38;;;;;;;;;0.80;0.80;;;;;28.60;23.37;100433.84;6343374;20;2729407;-55
2022/07/17 10:23:15;;;;;;;;;2.00;1.00;;;;;28.14;23.37;100426.59;6338378;20;2734652;-56
2022/07/17 10:25:45;;;;;;;;;0.00;0.00;;;;;27.91;23.95;100435.00;6343771;20;2730012;-58
2022/07/17 10:28:16;;;;;;;;;0.00;0.00;;;;;27.60;24.08;100431.50;6337587;20;2727372;-55
2022/07/17 10:30:46;;;;;;;;;0.20;0.20;;;;;27.79;23.87;100431.78;6344145;20;2733615;-58
2022/07/17 10:33:17;;;;;;;;;0.00;0.00;;;;;28.18;22.27;100430.72;6341449;20;2727475;-56
2022/07/17 10:35:48;;;;;;;;;1.80;1.80;;;;;27.62;23.54;100424.75;6340284;20;2735719;-55
2022/07/17 10:38:18;;;;;;;;;0.80;0.80;;;;;28.21;23.22;100424.78;6341401;20;2737860;-57
2022/07/17 10:41:03;;;;;;;;;0.80;0.80;;;;;28.09;23.44;100431.84;6310137;20;2727486;-56
2022/07/17 10:43:44;;;;;;;;;1.00;0.00;;;;;28.41;22.70;100427.84;6340402;20;2727350;-59
2022/07/17 10:46:13;;;;;;;;;0.00;0.00;;;;;27.64;23.83;100430.91;6340811;20;2727358;-51
2022/07/17 10:48:49;;;;;;;;;0.60;0.60;;;;;28.46;22.91;100424.50;6342305;20;2729503;-53
2022/07/17 10:51:19;;;;;;;;;1.00;0.00;;;;;28.46;23.51;100427.25;6342071;20;2726319;-51
2022/07/17 10:53:48;;;;;;;;;1.60;1.60;;;;;28.16;23.60;100410.72;6337724;20;2733583;-50
2022/07/17 10:56:18;;;;;;;;;4.60;4.60;;;;;28.37;22.95;100407.16;6307731;20;2736764;-49
2022/07/17 10:58:47;;;;;;;;;0.00;0.00;;;;;27.40;23.85;100403.56;6339165;20;2726339;-50
2022/07/17 11:01:22;;;;;;;;;0.00;0.00;;;;;28.63;23.27;100403.91;6343588;20;2727369;-46
2022/07/17 11:04:00;;;;;;;;;0.00;0.00;;;;;27.78;23.17;100407.16;6341179;20;2723164;-57
2022/07/17 11:06:38;;;;;;;;;0.60;0.60;;;;;27.92;22.62;100399.97;6337808;20;2729424;-57
2022/07/17 11:09:11;;;;;;;;;0.00;0.00;;;;;27.62;23.43;100399.91;6340335;20;2727361;-59
2022/07/17 11:11:51;;;;;;;;;1.00;1.00;;;;;28.29;22.31;100395.38;6342392;20;2733590;-58
2022/07/17 11:14:26;;;;;;;;;0.00;0.00;;;;;28.96;21.86;100394.25;6341095;20;2727389;-59
2022/07/17 11:16:59;;;;;;;;;1.00;1.00;;;;;28.37;22.20;100401.63;6338471;20;2720152;-53
2022/07/17 11:19:31;;;;;;;;;0.80;0.80;;;;;28.33;22.11;100393.91;6343552;20;2735715;-59
2022/07/17 11:22:04;;;;;;;;;0.00;0.00;;;;;28.49;22.21;100399.28;6344876;20;2727328;-52